East Otto, New York
Current Conditions -  °F | °C
As of 9:15 AM on Thursday 23 Oct 2014 (Local Time) from KOLE Reporting Station
Overcast Overcast  
Wind Chill: 30°   Ceiling: 500
Heat Index: 37°   Visibility: 10mi
Dew Point: 37°   Wind: 10mph
Humidity: 100%   Direction: 350°N
Pressure: 30.07"   Gusts: 17mph
Location:  42.39°N, 78.75°W
Report Text: KOLE 231315Z AUTO 35009G15KT 10SM OVC005 03/03 A3007 RMK AO2
Loading
Personal Weather Stations






























Interactive Weather Map
Tropical Storm Tracking
New forecast layout! Learn more

10-Day Weather Forecast

Advertisements
Track Severe Weather on mobile